Time;durP1;ratioP1;P1;durP2;ratioP2;P2;SDS_P1;SDS_P2;PMS_P1;PMS_P2;Temp;Humidity;BMP_temperature;BMP_pressure;BME280_temperature;BME280_humidity;BME280_pressure;Samples;Min_cycle;Max_cycle;Signal;HPM_P1;HPM_P2
2022/03/31 00:00:59;;;;;;;;;40.33;32.00;;;;;11.84;73.08;97973.72;6315684;20;3627379;-54
2022/03/31 00:03:28;;;;;;;;;33.67;29.00;;;;;12.08;72.41;97975.97;6286828;20;3603396;-52
2022/03/31 00:05:58;;;;;;;;;27.00;26.00;;;;;11.88;73.38;97966.28;6284392;20;2862924;-49
2022/03/31 00:08:26;;;;;;;;;28.00;24.67;;;;;12.04;72.38;97959.28;6315572;20;3581894;-49
2022/03/31 00:10:56;;;;;;;;;26.50;26.00;;;;;11.76;72.91;97961.00;6280192;20;2475418;-52
2022/03/31 00:13:30;;;;;;;;;28.00;23.00;;;;;12.07;73.29;97958.97;6281255;20;2843097;-48
2022/03/31 00:15:59;;;;;;;;;32.00;23.50;;;;;12.02;73.22;97957.72;6284851;20;2857621;-51
2022/03/31 00:18:31;;;;;;;;;23.00;20.00;;;;;12.08;73.49;97960.69;6281366;20;2840009;-50
2022/03/31 00:21:00;;;;;;;;;22.50;21.00;;;;;11.87;73.63;97965.41;6281482;20;2838892;-52
2022/03/31 00:23:29;;;;;;;;;27.50;18.00;;;;;11.93;73.63;97959.47;6285017;20;2852469;-52
2022/03/31 00:25:58;;;;;;;;;28.50;23.50;;;;;11.64;75.24;97957.63;6283360;20;2850359;-51
2022/03/31 00:28:28;;;;;;;;;31.33;28.00;;;;;11.76;75.12;97949.41;6283020;20;2852460;-48
2022/03/31 00:30:56;;;;;;;;;33.67;30.00;;;;;11.82;74.56;97938.06;6316493;20;3606501;-48
2022/03/31 00:33:26;;;;;;;;;32.67;29.00;;;;;11.53;76.33;97941.69;6282680;20;3602379;-49
2022/03/31 00:35:55;;;;;;;;;31.67;29.67;;;;;11.56;77.39;97937.84;6319515;20;3611668;-51
2022/03/31 00:38:24;;;;;;;;;30.00;28.00;;;;;11.85;75.93;97929.72;6284827;20;3593067;-48
2022/03/31 00:40:53;;;;;;;;;34.67;29.67;;;;;11.75;76.30;97932.44;6313714;20;3601341;-53
2022/03/31 00:43:23;;;;;;;;;37.67;32.33;;;;;11.71;77.31;97932.84;6280744;20;3619013;-51
2022/03/31 00:45:56;;;;;;;;;31.00;28.67;;;;;11.81;76.72;97915.72;6314497;20;3615869;-48
2022/03/31 00:48:25;;;;;;;;;37.33;33.00;;;;;11.75;77.33;97918.16;6284788;20;3614826;-50
2022/03/31 00:50:55;;;;;;;;;36.67;28.33;;;;;11.86;77.25;97915.31;6282960;20;3623543;-52
2022/03/31 00:53:23;;;;;;;;;35.67;30.67;;;;;11.83;77.27;97918.25;6316950;20;3605445;-53
2022/03/31 00:56:01;;;;;;;;;38.67;30.00;;;;;11.72;78.16;97916.59;6282404;20;3621155;-53
2022/03/31 00:58:30;;;;;;;;;36.00;32.33;;;;;11.81;77.69;97910.31;6316650;20;3590964;-49
2022/03/31 01:01:00;;;;;;;;;29.67;27.67;;;;;11.67;78.17;97899.22;6279410;20;3601399;-51
2022/03/31 01:03:30;;;;;;;;;30.33;28.33;;;;;11.92;77.14;97905.81;6312972;20;2858688;-53
2022/03/31 01:05:59;;;;;;;;;28.50;27.00;;;;;11.82;77.28;97903.97;6312451;20;2839884;-49
2022/03/31 01:08:28;;;;;;;;;33.33;29.00;;;;;11.65;77.42;97905.56;6283488;20;2864857;-52
2022/03/31 01:10:58;;;;;;;;;35.33;32.00;;;;;11.39;79.20;97893.72;6310719;20;3605467;-53
2022/03/31 01:13:27;;;;;;;;;40.00;33.67;;;;;11.59;77.74;97881.97;6316225;20;3603448;-51
2022/03/31 01:15:56;;;;;;;;;36.67;32.00;;;;;11.58;77.45;97880.25;6286425;20;3593063;-50
2022/03/31 01:18:25;;;;;;;;;28.33;27.00;;;;;11.40;78.89;97879.28;6278156;20;3600322;-51
2022/03/31 01:20:55;;;;;;;;;31.00;29.67;;;;;11.29;79.13;97874.09;6312476;20;3602304;-51
2022/03/31 01:23:27;;;;;;;;;62.00;49.00;;;;;11.36;79.40;97862.63;6317058;20;3634606;-55
2022/03/31 01:25:57;;;;;;;;;79.67;64.67;;;;;11.34;79.53;97853.84;6280668;20;3630539;-54
2022/03/31 01:28:26;;;;;;;;;42.00;34.67;;;;;11.33;80.27;97854.03;6317510;20;3588806;-53
2022/03/31 01:30:56;;;;;;;;;42.33;36.00;;;;;11.34;79.72;97853.84;6280647;20;2865981;-55
2022/03/31 01:33:24;;;;;;;;;44.00;33.00;;;;;11.27;80.31;97846.50;6314461;20;3629397;-53
2022/03/31 01:35:55;;;;;;;;;33.33;29.00;;;;;11.31;80.80;97847.94;6282642;20;2865050;-54
2022/03/31 01:38:24;;;;;;;;;30.33;29.33;;;;;11.49;79.93;97848.88;6315744;20;3604403;-52
2022/03/31 01:40:52;;;;;;;;;19.50;18.50;;;;;11.38;80.67;97847.22;6279278;20;2835682;-55
2022/03/31 01:43:21;;;;;;;;;38.33;31.00;;;;;11.14;81.38;97846.84;6280965;20;3623193;-54
2022/03/31 01:45:52;;;;;;;;;31.00;28.33;;;;;11.13;82.02;97845.97;6314721;20;3596087;-53
2022/03/31 01:48:22;;;;;;;;;32.00;32.00;;;;;11.10;81.89;97851.63;6280314;20;3606471;-53
2022/03/31 01:50:50;;;;;;;;;36.67;32.33;;;;;11.07;81.92;97851.91;6315143;20;3593983;-49
2022/03/31 01:53:19;;;;;;;;;28.50;27.00;;;;;11.03;82.21;97850.50;6280786;20;2856652;-52
2022/03/31 01:55:49;;;;;;;;;38.67;32.67;;;;;10.95;82.76;97839.63;6281771;20;3609752;-52
2022/03/31 01:58:18;;;;;;;;;37.33;33.00;;;;;11.03;82.79;97839.75;6316984;20;3597089;-53
2022/03/31 02:00:46;;;;;;;;;35.50;34.50;;;;;10.96;83.35;97844.88;6280122;20;2848285;-53
2022/03/31 02:03:17;;;;;;;;;38.00;31.00;;;;;10.73;84.28;97844.28;6281783;20;3622201;-50
2022/03/31 02:05:46;;;;;;;;;24.67;24.67;;;;;10.77;84.74;97853.78;6315061;20;3585647;-52
2022/03/31 02:08:15;;;;;;;;;36.00;32.00;;;;;10.66;85.74;97843.16;6278931;20;2847206;-53
2022/03/31 02:10:45;;;;;;;;;41.67;33.00;;;;;11.01;83.99;97847.13;6283033;20;2859739;-51
2022/03/31 02:13:14;;;;;;;;;39.67;34.33;;;;;11.06;83.32;97847.56;6314485;20;3606508;-51
2022/03/31 02:15:43;;;;;;;;;37.33;33.00;;;;;11.21;82.52;97842.56;6277172;20;3602295;-54
2022/03/31 02:18:13;;;;;;;;;36.33;34.67;;;;;11.29;81.73;97831.09;6308829;20;3601446;-49
2022/03/31 02:20:42;;;;;;;;;36.67;31.67;;;;;11.17;81.99;97835.81;6312810;20;3596106;-52
2022/03/31 02:23:11;;;;;;;;;44.33;34.33;;;;;11.33;80.98;97837.91;6276225;20;3607567;-54
2022/03/31 02:25:40;;;;;;;;;36.00;31.67;;;;;11.33;81.01;97835.22;6312057;20;3588814;-49
2022/03/31 02:28:12;;;;;;;;;36.67;33.00;;;;;11.36;80.49;97825.00;6276588;20;2851335;-51
2022/03/31 02:30:41;;;;;;;;;39.33;32.67;;;;;11.40;80.49;97825.56;6310533;20;3608619;-52
2022/03/31 02:33:11;;;;;;;;;42.67;34.67;;;;;11.37;80.14;97824.03;6278141;20;2856793;-49
2022/03/31 02:35:40;;;;;;;;;42.33;32.00;;;;;11.19;81.25;97815.88;6315885;20;3609650;-49
2022/03/31 02:38:09;;;;;;;;;35.00;32.00;;;;;11.29;80.26;97806.94;6282656;20;3583678;-52
2022/03/31 02:40:39;;;;;;;;;34.00;33.00;;;;;11.13;81.06;97794.94;6274889;20;2860809;-48
2022/03/31 02:43:10;;;;;;;;;38.67;34.33;;;;;11.17;80.79;97807.09;6313433;20;3587763;-51
2022/03/31 02:45:39;;;;;;;;;40.00;33.50;;;;;11.18;81.32;97810.63;6279893;20;2850247;-50
2022/03/31 02:48:09;;;;;;;;;32.33;28.33;;;;;11.04;81.18;97813.78;6280126;20;2851296;-49
2022/03/31 02:50:38;;;;;;;;;41.67;34.00;;;;;11.10;81.27;97811.34;6312334;20;3624269;-51
2022/03/31 02:55:55;;;;;;;;;46.00;36.67;;;;;10.96;82.17;97809.13;6310563;20;2860790;-53
2022/03/31 02:58:24;;;;;;;;;33.00;32.00;;;;;11.11;81.53;97813.06;6310212;20;2839913;-49
2022/03/31 03:00:54;;;;;;;;;42.33;36.33;;;;;11.03;82.19;97810.22;6282839;20;3611705;-50
2022/03/31 03:03:23;;;;;;;;;40.33;37.00;;;;;11.05;82.56;97793.97;6280934;20;3612874;-52
2022/03/31 03:05:53;;;;;;;;;45.00;37.00;;;;;11.27;81.13;97795.47;6311205;20;2868051;-53
2022/03/31 03:08:25;;;;;;;;;40.00;35.67;;;;;10.93;82.39;97798.66;6317026;20;3611673;-50
2022/03/31 03:10:55;;;;;;;;;41.00;34.00;;;;;10.88;82.85;97798.25;6312268;20;2864884;-52
2022/03/31 03:13:25;;;;;;;;;41.33;36.00;;;;;11.17;81.87;97799.03;6277890;20;3603548;-49
2022/03/31 03:15:54;;;;;;;;;41.00;35.67;;;;;10.97;82.86;97797.38;6314324;20;3616886;-51
2022/03/31 03:18:23;;;;;;;;;39.00;35.00;;;;;11.13;82.11;97796.78;6280825;20;2874272;-51
2022/03/31 03:20:53;;;;;;;;;45.33;38.67;;;;;11.03;82.44;97787.88;6279689;20;3607626;-54
2022/03/31 03:23:21;;;;;;;;;43.00;35.00;;;;;11.05;82.56;97799.34;6314098;20;3619031;-53
2022/03/31 03:25:50;;;;;;;;;46.33;37.00;;;;;11.02;82.85;97799.63;6282016;20;3609773;-52
2022/03/31 03:28:20;;;;;;;;;48.00;36.00;;;;;10.87;83.29;97791.16;6280869;20;3607507;-52
2022/03/31 03:30:49;;;;;;;;;45.67;36.67;;;;;10.85;84.25;97795.81;6315563;20;3624168;-54
2022/03/31 03:33:18;;;;;;;;;44.33;36.67;;;;;10.95;83.68;97778.75;6278989;20;2876515;-52
2022/03/31 03:35:47;;;;;;;;;39.33;37.00;;;;;10.80;84.34;97776.66;6311253;20;3610655;-54
2022/03/31 03:38:16;;;;;;;;;43.50;36.00;;;;;10.84;84.48;97788.78;6279395;20;2870149;-52
2022/03/31 03:40:45;;;;;;;;;41.67;34.67;;;;;10.74;84.50;97781.59;6278628;20;3610038;-53
2022/03/31 03:43:15;;;;;;;;;46.33;37.00;;;;;10.79;84.54;97780.31;6278547;20;2853516;-52
2022/03/31 03:45:44;;;;;;;;;50.00;37.00;;;;;10.72;84.61;97782.72;6319005;20;3628507;-51
2022/03/31 03:48:12;;;;;;;;;49.00;37.67;;;;;10.76;84.70;97782.28;6287565;20;3631636;-52
2022/03/31 03:50:41;;;;;;;;;41.00;36.33;;;;;10.60;85.72;97781.16;6287929;20;3621102;-48
2022/03/31 03:53:10;;;;;;;;;46.50;38.50;;;;;10.64;85.75;97772.69;6280804;20;2842061;-48
2022/03/31 03:55:40;;;;;;;;;43.67;38.00;;;;;10.73;84.89;97758.41;6281681;20;2877412;-52
2022/03/31 03:58:10;;;;;;;;;51.00;37.33;;;;;10.54;86.09;97753.91;6314403;20;3630515;-50
2022/03/31 04:00:39;;;;;;;;;40.50;35.50;;;;;10.45;86.60;97764.63;6315973;20;2735704;-53
2022/03/31 04:03:09;;;;;;;;;41.33;36.67;;;;;10.87;85.17;97757.09;6319651;20;3614817;-51
2022/03/31 04:05:38;;;;;;;;;44.33;36.00;;;;;10.77;85.53;97758.97;6282588;20;3605621;-52
2022/03/31 04:08:07;;;;;;;;;44.00;35.00;;;;;10.90;84.90;97750.59;6313849;20;2867002;-50
2022/03/31 04:10:37;;;;;;;;;36.00;34.50;;;;;10.84;84.78;97746.66;6279887;20;2846086;-48
2022/03/31 04:13:06;;;;;;;;;38.00;33.33;;;;;10.66;85.60;97741.16;6287018;20;3586692;-50
2022/03/31 04:15:35;;;;;;;;;51.50;39.50;;;;;10.60;86.51;97752.47;6281544;20;2863950;-51
2022/03/31 04:18:07;;;;;;;;;53.33;42.00;;;;;10.82;85.50;97755.84;6282296;20;2865605;-52
2022/03/31 04:20:37;;;;;;;;;53.00;43.67;;;;;10.85;85.22;97755.56;6312576;20;3618975;-52
2022/03/31 04:23:06;;;;;;;;;49.00;39.33;;;;;11.00;84.02;97754.13;6312338;20;3623155;-51
2022/03/31 04:25:36;;;;;;;;;56.33;41.00;;;;;10.68;85.27;97754.47;6314317;20;2879507;-52
2022/03/31 04:28:05;;;;;;;;;52.50;42.50;;;;;10.36;86.99;97754.75;6315322;20;2859623;-52
2022/03/31 04:30:34;;;;;;;;;45.50;38.50;;;;;10.79;85.47;97746.25;6280866;20;2861070;-52
2022/03/31 04:33:04;;;;;;;;;44.67;36.00;;;;;10.90;84.49;97750.59;6279790;20;3612817;-53
2022/03/31 04:35:36;;;;;;;;;47.00;39.00;;;;;10.62;84.79;97755.88;6311666;20;2854536;-53
2022/03/31 04:38:05;;;;;;;;;47.00;38.67;;;;;10.45;86.51;97759.25;6317195;20;3624172;-52
2022/03/31 04:40:34;;;;;;;;;45.00;37.00;;;;;10.80;84.76;97752.47;6279955;20;2845194;-54
2022/03/31 04:43:04;;;;;;;;;44.00;37.00;;;;;10.46;86.05;97745.72;6284693;20;2877327;-53
2022/03/31 04:45:34;;;;;;;;;46.67;40.00;;;;;10.49;85.17;97748.13;6312335;20;3611715;-50
2022/03/31 04:48:04;;;;;;;;;48.67;39.67;;;;;10.43;84.88;97742.47;6311978;20;2863844;-52
2022/03/31 04:50:33;;;;;;;;;53.00;41.50;;;;;10.58;85.19;97743.72;6309359;20;2873250;-55
2022/03/31 04:53:03;;;;;;;;;44.00;37.00;;;;;10.57;84.28;97746.56;6281923;20;3617992;-54
2022/03/31 04:55:34;;;;;;;;;46.00;36.33;;;;;10.54;83.73;97745.00;6310911;20;2874288;-55
2022/03/31 04:58:04;;;;;;;;;45.00;37.00;;;;;10.37;85.12;97745.72;6313955;20;3614959;-54
2022/03/31 05:00:33;;;;;;;;;48.00;35.00;;;;;10.58;84.53;97751.78;6313752;20;3634634;-53
2022/03/31 05:03:03;;;;;;;;;42.00;36.33;;;;;10.74;83.44;97744.00;6283508;20;3608596;-54
2022/03/31 05:05:32;;;;;;;;;45.00;36.33;;;;;10.30;85.74;97746.28;6318778;20;3611904;-55
2022/03/31 05:08:02;;;;;;;;;47.33;36.67;;;;;10.72;84.04;97740.63;6281985;20;3618997;-53
2022/03/31 05:10:31;;;;;;;;;47.00;37.67;;;;;10.63;84.37;97741.47;6310984;20;3627352;-55
2022/03/31 05:13:00;;;;;;;;;44.67;37.67;;;;;10.59;84.24;97747.28;6279569;20;2861772;-48
2022/03/31 05:15:29;;;;;;;;;54.33;40.00;;;;;10.60;84.33;97741.75;6316395;20;3608639;-55
2022/03/31 05:18:03;;;;;;;;;60.00;47.33;;;;;10.95;82.81;97742.97;6281054;20;2877478;-51
2022/03/31 05:20:33;;;;;;;;;66.00;50.67;;;;;10.88;82.60;97733.81;6311177;20;3631523;-52
2022/03/31 05:23:02;;;;;;;;;59.00;46.33;;;;;10.75;82.87;97740.31;6314234;20;3623245;-52
2022/03/31 05:25:31;;;;;;;;;55.00;43.00;;;;;10.72;83.34;97739.78;6312481;20;2853408;-50
2022/03/31 05:28:01;;;;;;;;;47.00;37.67;;;;;10.97;82.38;97743.66;6282101;20;2875350;-55
2022/03/31 05:30:30;;;;;;;;;54.00;46.00;;;;;10.97;82.47;97739.13;6306037;20;2854539;-54
2022/03/31 05:33:00;;;;;;;;;54.67;45.00;;;;;10.74;83.55;97740.47;6282888;20;2864818;-55
2022/03/31 05:35:30;;;;;;;;;55.00;40.67;;;;;10.73;84.05;97741.47;6311457;20;3621727;-55
2022/03/31 05:37:58;;;;;;;;;51.50;42.00;;;;;10.38;85.08;97742.91;6314376;20;2847156;-55
2022/03/31 05:40:28;;;;;;;;;48.00;38.33;;;;;10.64;84.32;97745.84;6278291;20;2852442;-54
2022/03/31 05:42:57;;;;;;;;;54.00;43.00;;;;;10.76;85.24;97741.16;6314730;20;2860410;-50
2022/03/31 05:45:25;;;;;;;;;47.00;40.00;;;;;10.95;83.10;97748.34;6281478;20;2846183;-53
2022/03/31 05:47:55;;;;;;;;;53.33;42.67;;;;;10.93;83.04;97742.28;6280284;20;3614871;-54
2022/03/31 05:50:25;;;;;;;;;53.33;43.33;;;;;10.69;83.77;97748.09;6308823;20;2864960;-55
2022/03/31 05:52:54;;;;;;;;;54.00;44.00;;;;;10.91;82.99;97746.94;6309267;20;2848258;-56
2022/03/31 05:55:24;;;;;;;;;55.00;46.00;;;;;10.89;83.22;97749.75;6278751;20;2867097;-55
2022/03/31 05:57:53;;;;;;;;;53.00;43.50;;;;;10.88;82.45;97747.25;6310084;20;2858678;-51
2022/03/31 06:00:22;;;;;;;;;52.67;43.33;;;;;11.07;81.96;97749.88;6279456;20;2856712;-52
2022/03/31 06:02:53;;;;;;;;;51.00;42.00;;;;;11.09;82.19;97747.06;6313037;20;2851388;-49
2022/03/31 06:05:22;;;;;;;;;51.00;39.50;;;;;10.80;83.00;97737.22;6312132;20;2863840;-48
2022/03/31 06:07:53;;;;;;;;;50.00;39.50;;;;;10.93;81.72;97742.28;6281626;20;2871064;-50
2022/03/31 06:10:23;;;;;;;;;51.33;42.00;;;;;10.69;83.77;97743.59;6280309;20;2862821;-50
2022/03/31 06:12:53;;;;;;;;;47.33;39.00;;;;;10.95;82.59;97730.41;6310749;20;2846152;-54
2022/03/31 06:15:23;;;;;;;;;53.00;40.00;;;;;11.10;82.21;97738.84;6312101;20;2860915;-56
2022/03/31 06:17:52;;;;;;;;;50.67;42.33;;;;;11.17;81.36;97739.94;6311710;20;2866982;-55
2022/03/31 06:20:22;;;;;;;;;51.33;42.00;;;;;11.32;80.59;97740.34;6309330;20;2861300;-57
2022/03/31 06:22:51;;;;;;;;;52.00;41.00;;;;;11.20;81.36;97747.72;6313867;20;2856558;-52
2022/03/31 06:25:21;;;;;;;;;52.67;42.67;;;;;11.29;80.63;97745.13;6304914;20;3605557;-53
2022/03/31 06:27:50;;;;;;;;;52.67;43.33;;;;;11.38;80.48;97753.16;6312409;20;2857659;-48
2022/03/31 06:30:20;;;;;;;;;57.67;44.33;;;;;11.21;81.00;97754.75;6309935;20;2867039;-53
2022/03/31 06:32:50;;;;;;;;;60.33;45.00;;;;;11.52;80.46;97759.06;6310397;20;3618995;-51
2022/03/31 06:35:20;;;;;;;;;58.67;45.33;;;;;11.49;80.23;97753.97;6309942;20;3609673;-53
2022/03/31 06:37:49;;;;;;;;;63.67;48.67;;;;;11.10;81.35;97749.56;6310859;20;3632530;-49
2022/03/31 06:40:19;;;;;;;;;61.67;48.33;;;;;11.25;81.40;97752.66;6308077;20;3623147;-48
2022/03/31 06:42:50;;;;;;;;;64.00;50.00;;;;;11.52;80.77;97751.84;6311798;20;3629400;-56
2022/03/31 06:45:21;;;;;;;;;57.67;46.00;;;;;11.14;81.72;97750.16;6312297;20;2867130;-52
2022/03/31 06:48:02;;;;;;;;;53.00;42.67;;;;;11.37;80.42;97750.63;6312928;20;3611692;-54
2022/03/31 06:50:34;;;;;;;;;56.33;44.33;;;;;11.28;81.06;97751.50;6308943;20;2859613;-51
2022/03/31 06:53:04;;;;;;;;;53.67;44.00;;;;;11.41;80.22;97754.72;6310841;20;2863811;-53
2022/03/31 06:55:34;;;;;;;;;53.00;42.33;;;;;11.23;81.50;97762.69;6310844;20;3605499;-54
2022/03/31 06:58:04;;;;;;;;;37.00;28.00;;;;;11.40;81.72;97761.06;6310573;20;2873386;-52
2022/03/31 07:00:34;;;;;;;;;56.33;44.33;;;;;11.42;82.49;97764.47;6306880;20;2858627;-50
2022/03/31 07:03:02;;;;;;;;;52.00;44.00;;;;;11.40;83.79;97761.06;6309126;20;2500384;-54
2022/03/31 07:05:34;;;;;;;;;51.33;41.00;;;;;11.24;83.59;97756.31;6279054;20;2875339;-53
2022/03/31 07:08:05;;;;;;;;;52.33;43.00;;;;;11.23;84.81;97761.84;6307725;20;2858700;-58
2022/03/31 07:10:34;;;;;;;;;55.00;43.00;;;;;11.52;83.22;97754.53;6307787;20;2854481;-52
2022/03/31 07:13:03;;;;;;;;;52.00;42.00;;;;;11.26;84.20;97758.88;6277174;20;2850328;-55
2022/03/31 07:15:33;;;;;;;;;56.00;45.67;;;;;11.37;85.02;97761.38;6280891;20;2872292;-53
2022/03/31 07:18:05;;;;;;;;;55.33;45.00;;;;;11.33;88.64;97760.81;6307910;20;2863912;-54
2022/03/31 07:20:36;;;;;;;;;54.67;44.00;;;;;11.41;88.49;97768.16;6312821;20;3597254;-52
2022/03/31 07:23:07;;;;;;;;;54.00;42.33;;;;;11.30;89.25;97771.03;6313571;20;2867416;-52
2022/03/31 07:25:37;;;;;;;;;54.00;44.00;;;;;11.26;89.83;97775.81;6312389;20;3592990;-52
2022/03/31 07:28:07;;;;;;;;;55.33;43.00;;;;;11.69;86.07;97760.09;6314155;20;2873268;-57
2022/03/31 07:30:37;;;;;;;;;59.67;46.00;;;;;11.15;89.50;97762.56;6314683;20;2875336;-57
2022/03/31 07:33:06;;;;;;;;;58.00;46.50;;;;;11.19;88.94;97767.53;6317616;20;2858575;-50
2022/03/31 07:35:39;;;;;;;;;55.00;46.00;;;;;11.54;88.32;97762.44;6281943;20;2500279;-54
2022/03/31 07:38:09;;;;;;;;;56.00;45.00;;;;;11.47;88.14;97756.81;6286322;20;2855487;-54
2022/03/31 07:40:41;;;;;;;;;59.00;44.67;;;;;11.12;89.41;97752.97;6282068;20;2868182;-52
2022/03/31 07:43:10;;;;;;;;;54.50;45.50;;;;;11.03;91.97;97753.81;6315940;20;2857540;-55
2022/03/31 07:45:41;;;;;;;;;58.00;45.00;;;;;11.04;90.08;97755.53;6282702;20;3614863;-54
2022/03/31 07:48:15;;;;;;;;;54.00;44.67;;;;;11.16;89.74;97750.81;6313691;20;2858677;-51
2022/03/31 07:50:45;;;;;;;;;56.33;44.00;;;;;11.18;89.03;97747.00;6314491;20;2873332;-54
2022/03/31 07:53:16;;;;;;;;;52.50;44.00;;;;;11.68;87.36;97743.13;6316192;20;2852441;-55
2022/03/31 07:55:45;;;;;;;;;56.67;46.00;;;;;11.82;86.85;97741.78;6283386;20;3608575;-51
2022/03/31 07:58:14;;;;;;;;;51.00;43.00;;;;;12.02;83.12;97745.25;6314995;20;2849425;-52
2022/03/31 08:00:43;;;;;;;;;51.00;42.00;;;;;11.56;86.59;97750.56;6283667;20;2854464;-50
2022/03/31 08:03:14;;;;;;;;;55.00;46.00;;;;;11.53;87.43;97744.59;6282537;20;2856565;-50
2022/03/31 08:05:45;;;;;;;;;57.00;44.00;;;;;11.87;87.18;97752.97;6284975;20;2860713;-51
2022/03/31 08:08:15;;;;;;;;;54.67;43.33;;;;;12.02;86.61;97751.44;6314022;20;3616127;-52
2022/03/31 08:10:45;;;;;;;;;59.00;42.67;;;;;11.87;85.94;97750.28;6315161;20;2883718;-50
2022/03/31 08:13:25;;;;;;;;;51.00;39.67;;;;;12.08;85.35;97744.63;6313948;20;2864973;-48
2022/03/31 08:15:57;;;;;;;;;49.00;39.00;;;;;11.99;85.75;97743.69;6313886;20;2861949;-49
2022/03/31 08:18:29;;;;;;;;;52.00;40.67;;;;;12.11;87.23;97746.16;6315429;20;3603357;-50
2022/03/31 08:20:59;;;;;;;;;50.00;42.00;;;;;12.00;86.76;97745.38;6282664;20;2873269;-53
2022/03/31 08:23:28;;;;;;;;;49.50;42.00;;;;;12.03;88.96;97736.16;6313334;20;2837856;-54
2022/03/31 08:25:57;;;;;;;;;46.50;40.00;;;;;12.15;85.21;97734.94;6283611;20;2844024;-53
2022/03/31 08:28:31;;;;;;;;;55.00;43.00;;;;;11.78;87.46;97737.72;6283282;20;3612728;-53
2022/03/31 08:31:01;;;;;;;;;58.33;43.00;;;;;12.02;87.23;97734.47;6313889;20;3627323;-48
2022/03/31 08:33:30;;;;;;;;;50.00;42.50;;;;;11.57;91.08;97725.34;6316659;20;2844026;-49
2022/03/31 08:35:58;;;;;;;;;24.50;23.50;;;;;11.17;93.14;97728.38;6283451;20;2839815;-51
2022/03/31 08:38:28;;;;;;;;;66.00;49.67;;;;;11.37;94.66;97723.75;6285678;20;3631520;-50
2022/03/31 08:40:58;;;;;;;;;63.67;48.00;;;;;11.80;97.82;97724.97;6312938;20;2879533;-50
2022/03/31 08:43:31;;;;;;;;;51.50;43.50;;;;;10.94;97.20;97723.31;6311421;20;2838800;-50
2022/03/31 08:46:07;;;;;;;;;53.00;43.00;;;;;11.10;97.39;97714.66;6281030;20;2863993;-47
2022/03/31 08:48:38;;;;;;;;;52.50;44.00;;;;;11.40;99.68;97707.31;6279491;20;2839857;-47
2022/03/31 08:51:07;;;;;;;;;51.00;44.00;;;;;11.18;98.47;97704.03;6282646;20;2860803;-51
2022/03/31 08:53:37;;;;;;;;;48.50;39.50;;;;;11.15;99.30;97706.16;6279312;20;2854414;-54
2022/03/31 08:56:09;;;;;;;;;53.00;44.00;;;;;10.94;98.52;97701.00;6284006;20;2857653;-54
2022/03/31 08:58:39;;;;;;;;;56.67;45.00;;;;;11.19;98.73;97695.00;6313399;20;3603351;-53
2022/03/31 09:01:08;;;;;;;;;51.50;43.00;;;;;11.02;100.00;97686.84;6313251;20;2841910;-52
2022/03/31 09:03:39;;;;;;;;;50.33;40.33;;;;;11.13;100.00;97684.81;6283504;20;2863353;-49
2022/03/31 09:06:26;;;;;;;;;56.33;44.00;;;;;10.84;100.00;97689.44;6315447;20;2852332;-50
2022/03/31 09:09:04;;;;;;;;;57.33;45.00;;;;;10.55;100.00;97675.09;6313894;20;2873309;-49
2022/03/31 09:11:37;;;;;;;;;58.67;46.00;;;;;10.72;100.00;97686.94;6310298;20;2872342;-47
2022/03/31 09:14:31;;;;;;;;;51.00;43.00;;;;;10.71;100.00;97689.75;6312302;20;3606486;-52
2022/03/31 09:17:29;;;;;;;;;57.00;45.50;;;;;10.76;100.00;97682.94;6310408;20;2860659;-50
2022/03/31 09:19:59;;;;;;;;;52.00;40.67;;;;;10.48;100.00;97681.19;6277701;20;2860692;-52
2022/03/31 09:22:29;;;;;;;;;58.67;47.33;;;;;10.76;100.00;97679.44;6307333;20;3619014;-51
2022/03/31 09:25:02;;;;;;;;;55.50;46.00;;;;;10.92;100.00;97682.34;6309609;20;2859618;-54
2022/03/31 09:27:32;;;;;;;;;59.00;46.00;;;;;11.37;100.00;97675.38;6281188;20;2865873;-57
2022/03/31 09:30:07;;;;;;;;;58.33;43.00;;;;;11.20;100.00;97672.50;6311350;20;3631454;-50
2022/03/31 09:32:47;;;;;;;;;55.00;46.00;;;;;11.00;100.00;97657.44;6311115;20;2864963;-50
2022/03/31 09:35:26;;;;;;;;;54.33;42.67;;;;;10.65;100.00;97661.66;6283055;20;2863843;-50
2022/03/31 09:37:55;;;;;;;;;44.00;35.33;;;;;10.61;100.00;97657.59;6310470;20;2875398;-52
2022/03/31 09:40:36;;;;;;;;;46.00;37.00;;;;;10.45;100.00;97660.88;6304897;20;3608610;-56
2022/03/31 09:43:06;;;;;;;;;56.67;44.67;;;;;11.11;100.00;97659.97;6310565;20;2863837;-55
2022/03/31 09:45:40;;;;;;;;;53.33;41.67;;;;;11.09;100.00;97653.91;6308916;20;2868069;-57
2022/03/31 09:48:25;;;;;;;;;52.00;38.33;;;;;11.09;100.00;97659.25;6314184;20;3608566;-57
2022/03/31 09:50:53;;;;;;;;;52.00;43.00;;;;;11.36;100.00;97655.72;6311324;20;2853388;-56
2022/03/31 09:53:27;;;;;;;;;55.67;44.33;;;;;11.04;100.00;97653.50;6283196;20;2860183;-57
2022/03/31 09:55:57;;;;;;;;;56.00;41.00;;;;;10.76;100.00;97650.75;6310044;20;3624302;-56
2022/03/31 09:58:27;;;;;;;;;55.00;43.00;;;;;10.97;100.00;97641.63;6311083;20;3626373;-53
2022/03/31 10:00:57;;;;;;;;;52.67;41.67;;;;;11.05;100.00;97632.84;6312734;20;2865075;-53
2022/03/31 10:03:27;;;;;;;;;57.33;43.67;;;;;11.15;100.00;97629.13;6307067;20;3622165;-53
2022/03/31 10:05:58;;;;;;;;;50.67;40.33;;;;;11.15;100.00;97633.66;6306292;20;2865880;-55
2022/03/31 10:08:34;;;;;;;;;47.33;37.67;;;;;10.71;100.00;97628.84;6308339;20;2867030;-53
2022/03/31 10:11:05;;;;;;;;;52.67;40.33;;;;;10.89;100.00;97634.31;6310239;20;2871167;-54
2022/03/31 10:14:27;;;;;;;;;51.33;40.33;;;;;10.81;100.00;97630.69;6314200;20;3583593;-55
2022/03/31 10:16:59;;;;;;;;;48.00;41.00;;;;;10.77;100.00;97620.25;6275930;20;2851741;-54
2022/03/31 10:19:44;;;;;;;;;53.67;43.00;;;;;10.75;100.00;97614.16;6277807;20;2861818;-55
2022/03/31 10:25:14;;;;;;;;;50.50;42.50;;;;;10.66;100.00;97609.66;6310838;20;2860772;-53
2022/03/31 10:27:46;;;;;;;;;46.33;38.67;;;;;10.59;100.00;97605.91;6283181;20;3585712;-52
2022/03/31 10:30:25;;;;;;;;;53.67;43.33;;;;;10.61;100.00;97593.19;6276842;20;2854498;-48
2022/03/31 10:33:01;;;;;;;;;48.33;37.67;;;;;10.64;100.00;97592.88;6314399;20;3611725;-47
2022/03/31 10:35:39;;;;;;;;;48.00;41.00;;;;;10.86;100.00;97601.56;6278808;20;2491911;-49
2022/03/31 10:38:26;;;;;;;;;47.50;37.50;;;;;10.89;100.00;97594.03;6281065;20;2847274;-48
2022/03/31 10:41:08;;;;;;;;;58.67;45.33;;;;;10.86;100.00;97591.66;6278540;20;3622218;-46
2022/03/31 10:43:47;;;;;;;;;45.33;35.67;;;;;10.81;100.00;97582.38;6310937;20;2874298;-48
2022/03/31 10:46:20;;;;;;;;;54.67;41.67;;;;;11.31;100.00;97590.03;6310413;20;3615860;-48
2022/03/31 10:48:58;;;;;;;;;57.67;43.00;;;;;10.81;100.00;97579.69;6312400;20;3640866;-54
2022/03/31 10:51:53;;;;;;;;;58.67;45.67;;;;;10.94;100.00;97590.91;6305721;20;2856501;-53
2022/03/31 10:54:33;;;;;;;;;51.33;43.67;;;;;10.89;100.00;97590.53;6311526;20;2865963;-53
2022/03/31 10:57:14;;;;;;;;;50.67;40.33;;;;;11.30;100.00;97591.03;6315752;20;3596225;-51
2022/03/31 10:59:47;;;;;;;;;58.33;46.33;;;;;11.46;100.00;97593.88;6314805;20;2870113;-50
2022/03/31 11:02:23;;;;;;;;;51.00;43.00;;;;;11.20;100.00;97599.97;6316311;20;2864529;-47
2022/03/31 11:04:57;;;;;;;;;45.50;38.50;;;;;11.13;100.00;97588.13;6316914;20;2850313;-46
2022/03/31 11:07:28;;;;;;;;;53.67;43.00;;;;;11.37;100.00;97576.84;6281159;20;3618965;-53
2022/03/31 11:10:16;;;;;;;;;53.33;43.00;;;;;11.33;100.00;97564.69;6314788;20;2843197;-52
2022/03/31 11:12:47;;;;;;;;;75.67;54.33;;;;;11.05;100.00;97569.22;6313617;20;3658431;-52
2022/03/31 11:15:17;;;;;;;;;38.00;32.00;;;;;10.77;100.00;97566.56;6280781;20;3617987;-53
2022/03/31 11:17:48;;;;;;;;;45.33;36.00;;;;;10.50;100.00;97558.47;6316362;20;3627332;-52
2022/03/31 11:20:23;;;;;;;;;55.00;43.00;;;;;10.72;100.00;97568.00;6314440;20;2740879;-52
2022/03/31 11:23:08;;;;;;;;;58.33;45.00;;;;;10.68;100.00;97555.84;6317164;20;3625211;-53